Andersontown, Pennsylvania
Current Conditions -  °F | °C
As of 10:56 AM on Thursday 23 Oct 2014 (Local Time) from KCXY Reporting Station
Overcast Overcast  
Wind Chill: 56°   Ceiling: 3100
Heat Index: 56°   Visibility: 10mi
Dew Point: 43°   Wind: 13mph
Humidity: 62%   Direction: 330°NNW
Pressure: 29.89"   Gusts: 21mph
Location:  40.208°N, 77.0098°W
Report Text: KCXY 231456Z 33011G18KT 10SM OVC031 13/06 A2989 RMK AO2 SLP124 T01330061 55001
Loading
Personal Weather Stations






























Interactive Weather Map New forecast layout! Learn more

10-Day Weather Forecast

Advertisements
Track Severe Weather on mobile